Time;durP1;ratioP1;P1;durP2;ratioP2;P2;SDS_P1;SDS_P2;PMS_P1;PMS_P2;Temp;Humidity;BMP_temperature;BMP_pressure;BME280_temperature;BME280_humidity;BME280_pressure;Samples;Min_cycle;Max_cycle;Signal;HPM_P1;HPM_P2
2022/09/11 00:00:47;;;;;;;36.83;19.88;;;13.10;99.90;;;;;;5040675;28;20041;-62
2022/09/11 00:03:12;;;;;;;39.33;20.50;;;13.10;99.90;;;;;;5041188;28;20056;-63
2022/09/11 00:05:40;;;;;;;40.08;20.73;;;13.10;99.90;;;;;;5057222;28;20129;-62
2022/09/11 00:08:07;;;;;;;40.15;20.10;;;13.00;99.90;;;;;;5066387;28;20044;-62
2022/09/11 00:10:39;;;;;;;41.13;21.02;;;13.00;99.90;;;;;;5061228;28;20120;-62
2022/09/11 00:13:32;;;;;;;37.88;21.27;;;13.00;99.90;;;;;;5061863;28;20024;-63
2022/09/11 00:15:57;;;;;;;41.25;21.98;;;13.00;99.90;;;;;;5063172;28;20048;-63
2022/09/11 00:18:23;;;;;;;44.42;22.58;;;13.10;99.90;;;;;;5064924;28;20894;-62
2022/09/11 00:20:54;;;;;;;46.88;23.80;;;13.10;99.90;;;;;;5067087;28;20037;-62
2022/09/11 00:23:22;;;;;;;45.80;23.50;;;13.10;99.90;;;;;;5068489;28;20045;-62
2022/09/11 00:25:48;;;;;;;46.20;23.85;;;13.10;99.90;;;;;;5066253;28;20152;-62
2022/09/11 00:28:16;;;;;;;48.13;23.02;;;13.10;99.90;;;;;;5068933;28;20053;-63
2022/09/11 00:30:46;;;;;;;46.90;24.02;;;13.20;99.90;;;;;;5068920;28;20055;-63
2022/09/11 00:33:14;;;;;;;47.45;24.27;;;13.20;99.90;;;;;;5065654;28;20036;-63
2022/09/11 00:35:40;;;;;;;50.15;24.50;;;13.20;99.90;;;;;;5067297;28;20060;-62
2022/09/11 00:38:07;;;;;;;51.05;25.02;;;13.20;99.90;;;;;;5065313;28;20078;-62
2022/09/11 00:40:44;;;;;;;47.63;24.05;;;13.20;99.90;;;;;;5067574;28;20037;-62
2022/09/11 00:43:11;;;;;;;43.55;22.65;;;13.10;99.90;;;;;;5054721;28;20674;-62
2022/09/11 00:45:37;;;;;;;49.20;24.05;;;13.00;99.90;;;;;;5065714;28;20055;-63
2022/09/11 00:48:04;;;;;;;48.95;25.50;;;13.00;99.90;;;;;;5053760;28;20041;-62
2022/09/11 00:50:31;;;;;;;44.65;24.10;;;12.90;99.90;;;;;;5048945;28;20085;-62
2022/09/11 00:53:01;;;;;;;45.42;23.42;;;12.90;99.90;;;;;;5066493;28;20044;-62
2022/09/11 00:55:32;;;;;;;47.20;23.95;;;12.90;99.90;;;;;;5069252;28;20043;-62
2022/09/11 00:58:14;;;;;;;42.17;23.55;;;12.90;99.90;;;;;;5067339;28;20117;-62
2022/09/11 01:00:43;;;;;;;45.00;23.27;;;12.80;99.90;;;;;;5064524;28;20036;-63
2022/09/11 01:03:09;;;;;;;47.78;24.35;;;12.80;99.90;;;;;;5061020;28;20037;-62
2022/09/11 01:05:38;;;;;;;44.97;23.25;;;12.80;99.90;;;;;;5063105;28;20476;-62
2022/09/11 01:08:05;;;;;;;43.38;23.95;;;12.80;99.90;;;;;;5066316;28;20431;-62
2022/09/11 01:10:52;;;;;;;47.20;24.83;;;12.80;99.90;;;;;;5046430;28;20036;-63
2022/09/11 01:13:36;;;;;;;48.42;23.23;;;12.80;99.90;;;;;;5064991;28;20037;-62
2022/09/11 01:16:19;;;;;;;42.50;21.65;;;12.70;99.90;;;;;;5058118;28;20071;-62
2022/09/11 01:19:20;;;;;;;44.33;24.67;;;12.70;99.90;;;;;;5067536;28;20045;-62
2022/09/11 01:21:57;;;;;;;42.90;22.83;;;12.70;99.90;;;;;;5063928;28;20044;-62
2022/09/11 01:25:04;;;;;;;48.97;24.50;;;12.70;99.90;;;;;;5062187;28;20048;-62
2022/09/11 01:27:42;;;;;;;45.63;22.92;;;12.70;99.90;;;;;;5066629;28;20067;-62
2022/09/11 01:30:22;;;;;;;46.38;23.52;;;12.70;99.90;;;;;;5047570;28;20368;-62
2022/09/11 01:33:05;;;;;;;42.47;23.90;;;12.60;99.90;;;;;;5065721;28;20533;-62
2022/09/11 01:35:51;;;;;;;44.95;22.75;;;12.60;99.90;;;;;;5064963;28;20111;-62
2022/09/11 01:38:30;;;;;;;44.17;23.40;;;12.70;99.90;;;;;;5068146;28;20483;-62
2022/09/11 01:41:08;;;;;;;46.40;23.77;;;12.60;99.90;;;;;;5064194;28;20432;-62
2022/09/11 01:43:42;;;;;;;44.50;23.23;;;12.70;99.90;;;;;;5067370;28;20041;-62
2022/09/11 01:46:08;;;;;;;50.72;24.73;;;12.60;99.90;;;;;;5064451;28;20036;-62
2022/09/11 01:48:51;;;;;;;43.95;23.50;;;12.70;99.90;;;;;;5067720;28;20395;-62
2022/09/11 01:51:25;;;;;;;47.50;24.55;;;12.70;99.90;;;;;;5047787;28;20043;-62
2022/09/11 01:53:53;;;;;;;52.00;25.92;;;12.70;99.90;;;;;;5056694;28;20045;-62
2022/09/11 01:56:28;;;;;;;51.53;26.30;;;12.70;99.90;;;;;;5067043;28;20025;-62
2022/09/11 01:58:59;;;;;;;49.97;26.58;;;12.80;99.90;;;;;;5068119;28;20040;-62
2022/09/11 02:01:32;;;;;;;44.30;23.73;;;12.70;99.90;;;;;;5065233;28;20392;-62
2022/09/11 02:04:07;;;;;;;42.80;24.70;;;12.70;99.90;;;;;;5050159;28;20076;-62
2022/09/11 02:06:42;;;;;;;45.83;24.55;;;12.70;99.90;;;;;;5049342;28;20044;-62
2022/09/11 02:09:13;;;;;;;45.60;25.40;;;12.70;99.90;;;;;;5048029;28;20037;-62
2022/09/11 02:11:41;;;;;;;;;;;12.70;99.90;;;;;;5059274;28;20123;-62
2022/09/11 02:14:28;;;;;;;50.90;25.13;;;12.70;99.90;;;;;;5052895;28;19916;-62
2022/09/11 02:17:15;;;;;;;48.75;25.02;;;12.70;99.90;;;;;;5023755;28;20052;-62
2022/09/11 02:19:41;;;;;;;50.65;26.40;;;12.70;99.90;;;;;;5053761;28;20226;-62
2022/09/11 02:22:07;;;;;;;47.85;25.48;;;12.70;99.90;;;;;;5045374;28;20079;-62
2022/09/11 02:24:33;;;;;;;46.25;25.63;;;12.80;99.90;;;;;;5048723;28;20056;-63
2022/09/11 02:27:07;;;;;;;52.30;26.00;;;12.80;99.90;;;;;;5053153;28;20041;-62
2022/09/11 02:29:33;;;;;;;45.85;24.67;;;12.80;99.90;;;;;;5049794;28;20118;-62
2022/09/11 02:32:00;;;;;;;46.17;23.88;;;12.90;99.90;;;;;;5049424;28;20041;-62
2022/09/11 02:34:28;;;;;;;47.28;24.92;;;12.90;99.90;;;;;;5033598;28;20607;-62
2022/09/11 02:37:17;;;;;;;44.88;24.38;;;12.90;99.90;;;;;;5055621;28;20115;-63
2022/09/11 02:40:04;;;;;;;44.78;25.58;;;12.80;99.90;;;;;;5048374;28;20032;-62
2022/09/11 02:42:58;;;;;;;44.63;24.25;;;12.80;99.90;;;;;;5054056;28;20404;-63
2022/09/11 02:46:06;;;;;;;43.80;23.02;;;12.80;99.90;;;;;;5054252;28;20037;-62
2022/09/11 02:49:09;;;;;;;43.30;22.92;;;12.80;99.90;;;;;;5062721;28;20044;-62
2022/09/11 02:51:55;;;;;;;36.72;21.20;;;12.70;99.90;;;;;;5048178;28;20037;-62
2022/09/11 02:54:46;;;;;;;40.97;23.10;;;12.60;99.90;;;;;;5050463;28;20369;-62
2022/09/11 02:57:27;;;;;;;46.95;24.23;;;12.60;99.90;;;;;;5038306;28;20048;-62
2022/09/11 03:00:01;;;;;;;42.97;23.77;;;12.60;99.90;;;;;;5062794;28;20044;-62
2022/09/11 03:02:29;;;;;;;45.25;23.23;;;12.60;99.90;;;;;;5051533;28;20049;-61
2022/09/11 03:04:55;;;;;;;44.35;23.65;;;12.70;99.90;;;;;;5056212;28;20103;-62
2022/09/11 03:07:23;;;;;;;49.90;24.98;;;12.60;99.90;;;;;;5070647;28;20048;-62
2022/09/11 03:09:48;;;;;;;43.80;23.02;;;12.60;99.90;;;;;;5068123;28;20087;-62
2022/09/11 03:12:14;;;;;;;42.03;21.85;;;12.60;99.90;;;;;;5067619;28;20056;-62
2022/09/11 03:14:39;;;;;;;45.05;23.98;;;12.50;99.90;;;;;;5066591;28;20037;-62
2022/09/11 03:17:05;;;;;;;44.67;24.58;;;12.50;99.90;;;;;;5052534;28;20111;-62
2022/09/11 03:19:31;;;;;;;43.75;23.27;;;12.40;99.90;;;;;;5052631;28;20067;-63
2022/09/11 03:21:56;;;;;;;47.10;23.98;;;12.40;99.90;;;;;;5068438;28;20645;-62
2022/09/11 03:24:22;;;;;;;45.92;24.33;;;12.40;99.90;;;;;;5069485;28;20123;-62
2022/09/11 03:26:48;;;;;;;38.08;21.83;;;12.40;99.90;;;;;;5063113;28;20048;-62
2022/09/11 03:29:13;;;;;;;40.92;22.10;;;12.40;99.90;;;;;;5053169;28;20066;-63
2022/09/11 03:31:39;;;;;;;44.10;23.02;;;12.40;99.90;;;;;;5064793;28;20036;-63
2022/09/11 03:34:05;;;;;;;44.65;23.00;;;12.30;99.90;;;;;;5070061;28;20945;-62
2022/09/11 03:36:33;;;;;;;38.38;21.25;;;12.30;99.90;;;;;;5062997;28;20357;-63
2022/09/11 03:38:59;;;;;;;42.65;23.08;;;12.30;99.90;;;;;;5068652;28;20167;-62
2022/09/11 03:41:25;;;;;;;41.15;22.40;;;12.30;99.90;;;;;;5067442;28;20051;-62
2022/09/11 03:43:50;;;;;;;37.90;20.95;;;12.30;99.90;;;;;;5067595;28;20028;-62
2022/09/11 03:46:16;;;;;;;38.80;21.67;;;12.30;99.90;;;;;;5068550;28;20040;-62
2022/09/11 03:48:44;;;;;;;42.58;22.75;;;12.30;99.90;;;;;;5053205;28;20049;-62
2022/09/11 03:51:10;;;;;;;41.38;22.58;;;12.30;99.90;;;;;;5067757;28;20078;-62
2022/09/11 03:53:37;;;;;;;40.97;22.95;;;12.30;99.90;;;;;;5058223;28;20044;-62
2022/09/11 03:56:03;;;;;;;38.63;22.13;;;12.30;99.90;;;;;;5068798;28;20087;-62
2022/09/11 03:58:29;;;;;;;38.40;22.35;;;12.30;99.90;;;;;;5071272;28;20102;-62
2022/09/11 04:00:55;;;;;;;37.08;21.30;;;12.30;99.90;;;;;;5069436;28;20064;-62
2022/09/11 04:03:20;;;;;;;37.17;20.27;;;12.30;99.90;;;;;;5066316;28;20041;-62
2022/09/11 04:05:57;;;;;;;35.05;20.92;;;12.20;99.90;;;;;;5052493;28;20056;-62
2022/09/11 04:08:23;;;;;;;38.45;21.52;;;12.20;99.90;;;;;;5028961;28;20124;-63
2022/09/11 04:10:56;;;;;;;36.30;20.60;;;12.20;99.90;;;;;;5050769;28;20536;-62
2022/09/11 04:13:29;;;;;;;34.15;20.23;;;12.20;99.90;;;;;;5047790;28;20067;-62
2022/09/11 04:16:02;;;;;;;41.83;23.30;;;12.20;99.90;;;;;;5047857;28;20083;-61
2022/09/11 04:18:29;;;;;;;38.58;21.38;;;12.20;99.90;;;;;;5034465;28;20044;-61
2022/09/11 04:20:55;;;;;;;37.90;21.30;;;12.20;99.90;;;;;;5051465;28;20067;-62
2022/09/11 04:23:20;;;;;;;38.47;22.88;;;12.20;99.90;;;;;;5054409;28;20400;-62
2022/09/11 04:25:46;;;;;;;39.58;21.42;;;12.20;99.90;;;;;;5046405;28;20468;-62
2022/09/11 04:28:12;;;;;;;36.13;21.63;;;12.20;99.90;;;;;;5058528;28;20055;-62
2022/09/11 04:30:38;;;;;;;32.47;19.60;;;12.10;99.90;;;;;;5056758;28;20045;-63
2022/09/11 04:33:05;;;;;;;33.65;19.90;;;12.10;99.90;;;;;;5043092;28;20481;-62
2022/09/11 04:35:31;;;;;;;34.13;20.38;;;12.20;99.90;;;;;;5044460;28;20033;-62
2022/09/11 04:37:57;;;;;;;28.95;18.08;;;12.10;99.90;;;;;;5050752;28;20045;-61
2022/09/11 04:40:22;;;;;;;39.47;21.15;;;12.10;99.90;;;;;;5048845;28;20516;-62
2022/09/11 04:42:48;;;;;;;32.28;19.60;;;12.10;99.90;;;;;;5047120;28;20048;-62
2022/09/11 04:45:14;;;;;;;32.70;18.77;;;12.10;99.90;;;;;;5055296;28;20040;-62
2022/09/11 04:47:39;;;;;;;37.28;19.88;;;12.00;99.90;;;;;;5039281;28;20068;-62
2022/09/11 04:50:06;;;;;;;32.25;19.17;;;12.00;99.90;;;;;;5046740;28;20035;-63
2022/09/11 04:52:33;;;;;;;30.85;18.17;;;12.10;99.90;;;;;;5033746;28;20435;-62
2022/09/11 04:54:59;;;;;;;33.92;18.90;;;12.10;99.90;;;;;;5046012;28;20055;-62
2022/09/11 04:57:24;;;;;;;32.55;18.35;;;12.00;99.90;;;;;;5043065;28;20594;-62
2022/09/11 04:59:51;;;;;;;30.33;17.98;;;12.00;99.90;;;;;;5046434;28;20052;-62
2022/09/11 05:02:17;;;;;;;33.50;19.02;;;12.00;99.90;;;;;;5029555;28;20430;-62
2022/09/11 05:04:42;;;;;;;31.35;17.75;;;12.00;99.90;;;;;;5047972;28;20060;-62
2022/09/11 05:07:12;;;;;;;34.38;18.48;;;12.00;99.90;;;;;;5054857;28;20045;-62
2022/09/11 05:09:37;;;;;;;31.13;18.55;;;12.00;99.90;;;;;;5043646;28;20037;-62
2022/09/11 05:12:03;;;;;;;30.23;17.60;;;12.00;99.90;;;;;;5034467;28;20048;-63
2022/09/11 05:14:31;;;;;;;30.20;17.15;;;12.00;99.90;;;;;;5046274;28;20044;-62
2022/09/11 05:16:57;;;;;;;32.70;18.13;;;12.00;99.90;;;;;;5045417;28;20125;-62
2022/09/11 05:19:24;;;;;;;29.27;17.95;;;12.00;99.90;;;;;;5050089;28;20499;-62
2022/09/11 05:21:50;;;;;;;30.85;18.05;;;12.10;99.90;;;;;;5048877;28;20489;-62
2022/09/11 05:24:15;;;;;;;32.53;18.27;;;12.10;99.90;;;;;;5033680;28;20496;-62
2022/09/11 05:26:41;;;;;;;29.80;18.10;;;12.20;99.90;;;;;;5048544;28;20167;-62
2022/09/11 05:29:13;;;;;;;33.28;18.80;;;12.20;99.90;;;;;;5047181;28;20371;-62
2022/09/11 05:31:39;;;;;;;30.80;17.73;;;12.30;99.90;;;;;;5040818;28;20547;-62
2022/09/11 05:34:05;;;;;;;33.70;18.73;;;12.30;99.90;;;;;;5047522;28;20060;-62
2022/09/11 05:36:32;;;;;;;36.03;18.98;;;12.30;99.90;;;;;;5021528;28;20119;-62
2022/09/11 05:38:58;;;;;;;31.33;18.75;;;12.40;99.90;;;;;;5050497;28;20510;-62
2022/09/11 05:41:24;;;;;;;31.17;19.13;;;12.30;99.90;;;;;;5043455;28;20531;-62
2022/09/11 05:43:53;;;;;;;32.58;18.00;;;12.40;99.90;;;;;;5049084;28;20757;-63
2022/09/11 05:46:20;;;;;;;30.20;18.58;;;12.50;99.90;;;;;;5030952;28;20397;-61
2022/09/11 05:48:46;;;;;;;31.77;18.98;;;12.50;99.90;;;;;;5039080;28;20062;-63
2022/09/11 05:51:14;;;;;;;34.13;18.23;;;12.50;99.90;;;;;;5039470;28;20120;-62
2022/09/11 05:53:40;;;;;;;32.22;18.95;;;12.60;99.90;;;;;;5046887;28;20445;-62
2022/09/11 05:56:06;;;;;;;33.38;19.77;;;12.60;99.90;;;;;;5041535;28;20036;-63
2022/09/11 05:58:32;;;;;;;33.30;19.77;;;12.70;99.90;;;;;;5045866;28;20091;-62
2022/09/11 06:01:12;;;;;;;33.03;19.20;;;12.70;99.90;;;;;;5044232;28;20044;-63
2022/09/11 06:03:38;;;;;;;32.40;18.52;;;12.80;99.90;;;;;;5048204;28;20128;-62
2022/09/11 06:06:06;;;;;;;32.53;18.98;;;12.80;99.90;;;;;;5063130;28;20060;-62
2022/09/11 06:08:33;;;;;;;31.65;18.95;;;12.90;99.90;;;;;;5064910;28;20392;-62
2022/09/11 06:11:00;;;;;;;36.00;20.25;;;13.00;99.90;;;;;;5060896;28;20504;-62
2022/09/11 06:13:32;;;;;;;33.20;19.80;;;13.00;99.90;;;;;;5062230;28;20040;-62
2022/09/11 06:15:59;;;;;;;35.08;20.58;;;13.10;99.90;;;;;;5063380;28;20380;-63
2022/09/11 06:18:25;;;;;;;29.15;18.27;;;13.20;99.90;;;;;;5063156;28;20044;-62
2022/09/11 06:21:02;;;;;;;30.73;18.83;;;13.30;99.90;;;;;;5061411;28;20052;-63
2022/09/11 06:23:27;;;;;;;32.17;18.92;;;13.40;99.90;;;;;;5039273;28;20408;-63
2022/09/11 06:26:01;;;;;;;30.13;19.35;;;13.50;99.90;;;;;;5061505;28;20040;-62
2022/09/11 06:28:26;;;;;;;33.83;19.95;;;13.60;99.90;;;;;;5045025;28;20049;-63
2022/09/11 06:30:52;;;;;;;29.73;20.02;;;13.70;99.90;;;;;;5066180;28;20079;-63
2022/09/11 06:33:19;;;;;;;30.33;19.30;;;13.90;99.90;;;;;;5059328;28;20063;-63
2022/09/11 06:35:58;;;;;;;30.08;19.70;;;14.10;99.90;;;;;;5061245;28;20068;-63
2022/09/11 06:38:25;;;;;;;30.40;18.25;;;14.40;99.90;;;;;;5061819;28;20032;-62
2022/09/11 06:40:51;;;;;;;25.75;17.60;;;14.60;99.90;;;;;;5066800;28;20805;-63
2022/09/11 06:43:17;;;;;;;24.67;16.73;;;14.90;99.90;;;;;;5065453;28;20047;-63
2022/09/11 06:45:42;;;;;;;22.17;16.27;;;15.10;99.90;;;;;;5062000;28;20068;-63
2022/09/11 06:48:08;;;;;;;23.58;16.35;;;15.30;99.90;;;;;;5051438;28;20048;-63
2022/09/11 06:50:40;;;;;;;22.35;15.68;;;15.50;99.90;;;;;;5067355;28;20064;-63
2022/09/11 06:53:09;;;;;;;22.10;15.10;;;15.70;99.90;;;;;;5063615;28;20377;-63
2022/09/11 06:55:35;;;;;;;20.17;14.02;;;16.00;99.90;;;;;;5064257;28;20043;-63
2022/09/11 06:58:01;;;;;;;16.63;13.57;;;16.20;99.90;;;;;;5060907;28;20041;-63
2022/09/11 07:00:27;;;;;;;17.25;13.50;;;16.40;99.90;;;;;;5066042;28;20557;-64
2022/09/11 07:02:53;;;;;;;15.93;11.93;;;16.60;99.90;;;;;;5043174;28;20040;-63
2022/09/11 07:05:21;;;;;;;15.20;11.63;;;16.80;99.90;;;;;;5051173;28;20069;-63
2022/09/11 07:07:47;;;;;;;14.27;11.70;;;17.00;99.90;;;;;;5029169;28;20052;-63
2022/09/11 07:10:13;;;;;;;14.32;11.95;;;17.30;99.90;;;;;;5050799;28;20052;-64
2022/09/11 07:12:38;;;;;;;14.30;11.45;;;17.50;99.90;;;;;;5052408;28;20036;-63
2022/09/11 07:15:08;;;;;;;12.65;11.27;;;17.70;99.90;;;;;;5052699;28;20476;-63
2022/09/11 07:17:35;;;;;;;13.65;10.93;;;18.00;99.90;;;;;;5053127;28;20037;-63
2022/09/11 07:20:02;;;;;;;12.52;10.43;;;18.20;99.90;;;;;;5052267;28;20041;-64
2022/09/11 07:22:28;;;;;;;11.15;9.95;;;18.50;99.90;;;;;;5047119;28;20043;-63
2022/09/11 07:24:53;;;;;;;11.07;9.10;;;18.70;99.90;;;;;;5052679;28;20052;-63
2022/09/11 07:27:20;;;;;;;12.75;10.75;;;18.90;99.90;;;;;;5051595;28;20037;-63
2022/09/11 07:29:45;;;;;;;12.35;10.10;;;19.10;99.90;;;;;;5049598;28;20043;-63
2022/09/11 07:32:11;;;;;;;13.40;10.35;;;19.30;99.90;;;;;;5045157;28;20033;-61
2022/09/11 07:34:37;;;;;;;12.98;10.63;;;19.40;99.90;;;;;;5045366;28;20040;-61
2022/09/11 07:37:03;;;;;;;13.82;9.68;;;19.40;99.90;;;;;;5045471;28;20048;-64
2022/09/11 07:39:28;;;;;;;12.13;10.00;;;19.50;99.90;;;;;;5049267;28;20086;-63
2022/09/11 07:41:54;;;;;;;17.00;11.93;;;19.50;99.90;;;;;;5049318;28;20039;-64
2022/09/11 07:44:22;;;;;;;16.55;12.68;;;19.50;99.90;;;;;;5039056;28;20124;-63
2022/09/11 07:46:48;;;;;;;14.55;11.82;;;19.60;99.90;;;;;;5033681;28;20041;-63
2022/09/11 07:49:14;;;;;;;13.65;11.52;;;19.60;99.90;;;;;;5040233;28;20040;-63
2022/09/11 07:51:40;;;;;;;12.52;9.82;;;19.60;99.90;;;;;;5047801;28;20040;-62
2022/09/11 07:54:06;;;;;;;12.70;10.50;;;19.60;99.90;;;;;;5046970;28;20048;-63
2022/09/11 07:56:33;;;;;;;11.48;10.10;;;19.80;99.90;;;;;;5045517;28;20107;-63
2022/09/11 07:59:00;;;;;;;14.90;11.32;;;19.80;99.90;;;;;;5049139;28;20056;-64
2022/09/11 08:01:28;;;;;;;14.05;10.18;;;19.90;99.90;;;;;;5049317;28;20063;-63
2022/09/11 08:03:57;;;;;;;11.95;10.32;;;19.80;99.90;;;;;;5050717;28;20071;-62
2022/09/11 08:06:24;;;;;;;14.98;11.27;;;19.90;99.90;;;;;;5044660;28;20045;-63
2022/09/11 08:08:54;;;;;;;13.60;8.80;;;19.90;99.90;;;;;;5040548;28;20036;-63
2022/09/11 08:11:20;;;;;;;11.63;9.90;;;20.00;99.90;;;;;;5047510;28;20041;-64
2022/09/11 08:13:50;;;;;;;12.15;10.02;;;20.10;99.90;;;;;;5050440;28;20044;-63
2022/09/11 08:16:17;;;;;;;;;;;20.20;99.90;;;;;;5032881;28;20120;-63
2022/09/11 08:18:43;;;;;;;13.13;8.50;;;20.00;99.90;;;;;;5042090;28;19959;-64
2022/09/11 08:21:10;;;;;;;12.05;8.88;;;20.10;99.90;;;;;;5043823;28;20049;-63
2022/09/11 08:23:39;;;;;;;12.90;10.20;;;20.30;99.90;;;;;;5043458;28;20070;-64
2022/09/11 08:26:16;;;;;;;12.23;9.13;;;20.10;99.90;;;;;;5009726;28;20045;-63
2022/09/11 08:28:43;;;;;;;9.43;7.97;;;20.30;99.90;;;;;;5048986;28;20049;-63
2022/09/11 08:31:10;;;;;;;9.55;7.07;;;20.40;99.90;;;;;;5049686;28;20488;-63
2022/09/11 08:33:36;;;;;;;11.27;8.13;;;20.60;99.90;;;;;;5046543;28;20079;-63
2022/09/11 08:36:08;;;;;;;9.98;7.50;;;20.80;99.90;;;;;;5044356;28;20033;-63
2022/09/11 08:38:35;;;;;;;12.02;8.73;;;21.20;99.90;;;;;;5041339;28;20136;-64
2022/09/11 08:41:26;;;;;;;11.43;7.05;;;21.70;99.90;;;;;;5040752;28;20128;-61
2022/09/11 08:44:00;;;;;;;11.70;7.97;;;21.90;99.90;;;;;;5050863;28;20053;-62
2022/09/11 08:46:39;;;;;;;12.05;8.48;;;21.90;99.90;;;;;;5046065;28;20044;-62
2022/09/11 08:49:24;;;;;;;9.63;6.10;;;21.50;99.90;;;;;;5038757;28;20045;-62
2022/09/11 08:51:53;;;;;;;8.85;4.68;;;21.30;99.90;;;;;;5046534;28;20037;-64
2022/09/11 08:54:32;;;;;;;7.40;5.57;;;21.40;99.90;;;;;;5022351;28;20399;-64
2022/09/11 08:57:28;;;;;;;8.02;5.15;;;21.70;99.90;;;;;;5043299;28;20041;-61
2022/09/11 09:00:13;;;;;;;7.00;4.03;;;21.80;99.90;;;;;;5048427;28;20049;-62
2022/09/11 09:03:14;;;;;;;9.63;5.68;;;22.20;99.90;;;;;;5048294;28;20125;-62
2022/09/11 09:05:52;;;;;;;9.68;5.63;;;22.30;99.90;;;;;;5062674;28;20507;-62
2022/09/11 09:08:23;;;;;;;6.88;4.75;;;22.50;99.90;;;;;;5058463;28;20045;-61
2022/09/11 09:10:55;;;;;;;6.35;4.20;;;22.70;99.90;;;;;;5066694;28;20036;-63
2022/09/11 09:13:37;;;;;;;6.53;3.53;;;22.60;99.90;;;;;;5062997;28;20393;-62
2022/09/11 09:16:39;;;;;;;6.82;4.03;;;22.60;99.90;;;;;;5070774;28;20043;-63
2022/09/11 09:19:45;;;;;;;8.93;5.03;;;22.40;99.90;;;;;;5051411;28;20085;-62
2022/09/11 09:22:38;;;;;;;6.93;4.65;;;22.00;99.90;;;;;;5045924;28;20445;-62
2022/09/11 09:25:10;;;;;;;6.15;3.25;;;21.90;99.90;;;;;;5061521;28;20482;-62
2022/09/11 09:27:52;;;;;;;9.75;4.28;;;22.00;99.90;;;;;;5070788;28;20430;-63
2022/09/11 09:30:26;;;;;;;8.30;5.13;;;22.20;99.10;;;;;;5050450;28;20045;-62
2022/09/11 09:32:54;;;;;;;9.55;6.10;;;22.30;99.50;;;;;;5068812;28;20082;-62
2022/09/11 09:35:42;;;;;;;6.85;4.80;;;22.40;98.40;;;;;;5067670;28;20515;-62
2022/09/11 09:38:18;;;;;;;6.60;4.57;;;22.40;97.60;;;;;;5068954;28;20048;-62
2022/09/11 09:41:10;;;;;;;6.50;4.97;;;22.30;97.70;;;;;;5070197;28;20124;-62
2022/09/11 09:44:03;;;;;;;6.00;4.57;;;22.10;98.10;;;;;;5071119;28;20043;-61
2022/09/11 09:46:47;;;;;;;5.78;3.53;;;22.20;97.90;;;;;;5069103;28;20048;-61
2022/09/11 09:49:21;;;;;;;4.13;2.08;;;22.30;96.60;;;;;;5051147;28;20086;-62
2022/09/11 09:51:47;;;;;;;3.60;1.75;;;22.10;96.20;;;;;;5063010;28;20039;-62
2022/09/11 09:54:15;;;;;;;3.90;2.15;;;21.80;96.50;;;;;;5067589;28;20039;-62
2022/09/11 09:56:43;;;;;;;3.13;2.63;;;21.70;96.30;;;;;;5056999;28;20078;-62
2022/09/11 09:59:24;;;;;;;4.78;3.20;;;21.70;96.30;;;;;;5067739;28;20044;-62
2022/09/11 10:01:51;;;;;;;5.32;2.90;;;21.60;96.20;;;;;;5068015;28;20499;-62
2022/09/11 10:04:23;;;;;;;5.28;2.33;;;21.70;96.20;;;;;;5051716;28;20071;-62
2022/09/11 10:06:51;;;;;;;4.20;2.38;;;21.90;95.40;;;;;;5066338;28;20064;-62
2022/09/11 10:09:25;;;;;;;6.53;2.42;;;21.90;95.20;;;;;;5050840;28;20044;-62
2022/09/11 10:12:32;;;;;;;3.80;2.58;;;22.00;95.20;;;;;;5061738;28;20036;-62
2022/09/11 10:15:00;;;;;;;3.20;2.10;;;21.90;94.60;;;;;;5050767;28;20056;-61
2022/09/11 10:17:32;;;;;;;2.50;1.52;;;21.80;94.60;;;;;;5071614;28;20473;-61
2022/09/11 10:20:22;;;;;;;5.55;2.45;;;21.50;94.90;;;;;;5066170;28;20051;-61
2022/09/11 10:22:49;;;;;;;5.80;2.67;;;21.40;95.40;;;;;;5051330;28;20123;-62
2022/09/11 10:25:26;;;;;;;4.05;2.25;;;21.40;95.50;;;;;;5065350;28;20045;-62
2022/09/11 10:28:07;;;;;;;3.95;2.13;;;21.50;96.40;;;;;;5071259;28;20117;-61
2022/09/11 10:30:35;;;;;;;5.05;2.25;;;21.60;95.90;;;;;;5052875;28;20040;-62
2022/09/11 10:33:25;;;;;;;4.00;2.25;;;21.60;96.40;;;;;;5071004;28;20526;-63
2022/09/11 10:35:56;;;;;;;;;;;21.70;96.30;;;;;;5059778;28;20110;-61
2022/09/11 10:38:52;;;;;;;5.28;2.60;;;21.50;96.20;;;;;;5064178;28;19974;-62
2022/09/11 10:41:21;;;;;;;3.63;2.08;;;21.30;94.60;;;;;;5062366;28;20051;-63
2022/09/11 10:44:02;;;;;;;4.82;2.30;;;21.30;95.80;;;;;;5069456;28;20071;-63
2022/09/11 10:46:38;;;;;;;5.80;3.05;;;21.10;95.60;;;;;;5064856;28;20354;-62
2022/09/11 10:49:04;;;;;;;4.40;2.22;;;21.10;96.60;;;;;;5070388;28;20044;-63
2022/09/11 10:51:32;;;;;;;5.43;3.10;;;21.20;96.60;;;;;;5050186;28;20037;-62
2022/09/11 10:54:25;;;;;;;3.92;2.25;;;21.10;96.50;;;;;;5072527;28;20044;-62
2022/09/11 10:57:04;;;;;;;4.45;2.05;;;21.10;96.60;;;;;;5046903;28;20054;-62
2022/09/11 10:59:50;;;;;;;3.67;1.80;;;21.20;96.70;;;;;;5063240;28;20024;-62
2022/09/11 11:02:32;;;;;;;3.67;2.15;;;21.20;97.10;;;;;;5065254;28;20040;-62
2022/09/11 11:05:02;;;;;;;3.50;2.20;;;21.20;96.30;;;;;;5050056;28;20107;-63
2022/09/11 11:07:39;;;;;;;5.60;2.35;;;21.20;96.40;;;;;;5050790;28;20088;-63
2022/09/11 11:10:41;;;;;;;5.95;2.80;;;21.20;96.50;;;;;;5048488;28;20079;-62
2022/09/11 11:13:29;;;;;;;3.83;2.75;;;21.20;95.80;;;;;;5051301;28;20033;-63
2022/09/11 11:16:11;;;;;;;5.18;2.60;;;21.40;96.10;;;;;;5046245;28;20049;-62
2022/09/11 11:19:12;;;;;;;3.40;2.53;;;21.50;95.10;;;;;;5047060;28;20426;-62
2022/09/11 11:21:44;;;;;;;4.32;2.42;;;21.60;95.30;;;;;;5046937;28;20059;-64
2022/09/11 11:24:41;;;;;;;4.32;2.10;;;21.40;95.10;;;;;;5051042;28;20064;-62
2022/09/11 11:27:26;;;;;;;3.08;2.15;;;21.50;94.90;;;;;;5048404;28;20145;-62
2022/09/11 11:30:30;;;;;;;4.85;2.03;;;21.70;94.10;;;;;;5042837;28;20108;-63
2022/09/11 11:32:55;;;;;;;4.75;2.30;;;21.80;94.00;;;;;;5033171;28;20175;-63
2022/09/11 11:35:38;;;;;;;4.10;2.00;;;21.80;94.30;;;;;;5051334;28;20120;-63
2022/09/11 11:38:23;;;;;;;4.07;2.30;;;21.80;94.40;;;;;;5035977;28;20036;-62
2022/09/11 11:40:54;;;;;;;4.20;2.28;;;21.90;94.90;;;;;;5044622;28;20114;-63
2022/09/11 11:43:26;;;;;;;3.22;2.50;;;21.80;95.00;;;;;;5047838;28;20045;-61
2022/09/11 11:46:01;;;;;;;3.17;2.28;;;21.70;94.70;;;;;;5029155;28;20497;-62
2022/09/11 11:48:51;;;;;;;2.65;2.20;;;21.60;95.40;;;;;;5042028;28;20077;-62
2022/09/11 11:51:17;;;;;;;;;;;21.40;95.90;;;;;;5049655;28;20044;-63
2022/09/11 11:54:02;;;;;;;4.13;2.22;;;21.10;98.40;;;;;;5044375;28;19962;-62
2022/09/11 11:56:48;;;;;;;3.20;2.25;;;20.70;98.70;;;;;;5051589;28;20044;-62
2022/09/11 11:59:19;;;;;;;4.00;2.25;;;20.50;99.50;;;;;;5051871;28;20071;-62
2022/09/11 12:01:58;;;;;;;3.72;2.15;;;20.50;99.90;;;;;;5052074;28;20056;-63
2022/09/11 12:05:01;;;;;;;7.05;2.38;;;20.30;99.90;;;;;;5053353;28;20048;-63
2022/09/11 12:07:31;;;;;;;12.60;3.25;;;19.80;99.90;;;;;;5070251;28;20123;-64
2022/09/11 12:10:00;;;;;;;11.63;3.40;;;18.90;99.90;;;;;;5053221;28;20388;-63
2022/09/11 12:12:41;;;;;;;17.73;3.70;;;18.50;99.90;;;;;;5071574;28;20075;-63
2022/09/11 12:15:16;;;;;;;10.05;4.80;;;18.20;99.90;;;;;;5067636;28;20047;-63
2022/09/11 12:17:42;;;;;;;10.18;5.28;;;17.90;99.90;;;;;;5072327;28;20115;-62
2022/09/11 12:20:11;;;;;;;9.73;5.22;;;17.70;99.90;;;;;;5067252;28;20040;-62
2022/09/11 12:22:45;;;;;;;8.02;4.93;;;17.70;99.90;;;;;;5067410;28;20048;-63
2022/09/11 12:25:20;;;;;;;8.63;5.53;;;17.60;99.90;;;;;;5070584;28;20036;-62
2022/09/11 12:27:52;;;;;;;12.55;5.68;;;17.60;99.90;;;;;;5066676;28;20047;-65
2022/09/11 12:30:19;;;;;;;8.00;5.72;;;17.40;99.90;;;;;;5042418;28;20145;-63
2022/09/11 12:32:46;;;;;;;8.40;6.30;;;17.50;99.90;;;;;;5069749;28;20097;-63
2022/09/11 12:35:20;;;;;;;8.45;6.28;;;17.30;99.90;;;;;;5069334;28;20048;-63
2022/09/11 12:38:04;;;;;;;7.50;5.53;;;17.60;99.90;;;;;;5051828;28;20617;-63
2022/09/11 12:40:55;;;;;;;9.73;6.15;;;17.20;99.90;;;;;;5065636;28;20047;-63
2022/09/11 12:43:36;;;;;;;7.22;6.53;;;17.30;99.90;;;;;;5052099;28;20474;-63
2022/09/11 12:46:10;;;;;;;9.30;6.88;;;17.20;99.90;;;;;;5062871;28;20036;-63
2022/09/11 12:48:45;;;;;;;13.77;7.60;;;17.30;99.90;;;;;;5070732;28;20116;-63
2022/09/11 12:51:52;;;;;;;9.93;6.97;;;17.10;99.90;;;;;;5065161;28;20036;-63
2022/09/11 12:54:32;;;;;;;7.60;6.85;;;17.40;99.90;;;;;;5033077;28;20050;-63
2022/09/11 12:57:04;;;;;;;7.93;7.13;;;17.50;99.90;;;;;;5062914;28;20115;-63
2022/09/11 12:59:39;;;;;;;11.40;7.88;;;17.40;99.90;;;;;;5067710;28;20036;-62
2022/09/11 13:02:29;;;;;;;9.50;6.88;;;17.80;99.90;;;;;;5070603;28;20112;-63
2022/09/11 13:04:56;;;;;;;8.32;6.70;;;18.00;99.90;;;;;;5066943;28;20091;-63